Time;durP1;ratioP1;P1;durP2;ratioP2;P2;SDS_P1;SDS_P2;PMS_P1;PMS_P2;Temp;Humidity;BMP_temperature;BMP_pressure;BME280_temperature;BME280_humidity;BME280_pressure;Samples;Min_cycle;Max_cycle;Signal;HPM_P1;HPM_P2
2023/06/11 00:00:51;;;;;;;14.77;11.63;;;;;;;;;;4971354;28;20481;-85
2023/06/11 00:03:21;;;;;;;9.03;8.17;;;;;;;;;;4978658;28;20487;-83
2023/06/11 00:05:49;;;;;;;13.03;8.30;;;;;;;;;;4972906;28;20444;-81
2023/06/11 00:08:16;;;;;;;9.07;8.20;;;;;;;;;;4965678;28;20452;-81
2023/06/11 00:10:44;;;;;;;9.40;7.60;;;;;;;;;;4965049;28;20448;-86
2023/06/11 00:13:18;;;;;;;10.03;7.80;;;;;;;;;;4963600;28;20764;-84
2023/06/11 00:15:45;;;;;;;8.63;7.83;;;;;;;;;;4969961;28;20457;-82
2023/06/11 00:18:13;;;;;;;10.70;8.47;;;;;;;;;;4963476;28;20458;-83
2023/06/11 00:20:41;;;;;;;9.20;8.40;;;;;;;;;;4962002;28;20437;-85
2023/06/11 00:23:09;;;;;;;9.10;8.20;;;;;;;;;;4962743;28;20546;-79
2023/06/11 00:25:36;;;;;;;9.13;8.33;;;;;;;;;;4965609;28;20483;-80
2023/06/11 00:28:04;;;;;;;10.60;9.50;;;;;;;;;;4962807;28;20449;-88
2023/06/11 00:30:32;;;;;;;9.10;8.20;;;;;;;;;;4957036;28;20427;-82
2023/06/11 00:33:00;;;;;;;9.60;8.80;;;;;;;;;;4962342;28;20453;-80
2023/06/11 00:35:27;;;;;;;10.70;9.50;;;;;;;;;;4960678;28;21222;-81
2023/06/11 00:37:55;;;;;;;9.43;8.53;;;;;;;;;;4957168;28;20420;-84
2023/06/11 00:40:22;;;;;;;10.90;8.57;;;;;;;;;;4963357;28;20420;-82
2023/06/11 00:42:50;;;;;;;9.13;8.30;;;;;;;;;;4961903;28;20468;-82
2023/06/11 00:45:18;;;;;;;11.13;9.63;;;;;;;;;;4961086;28;20460;-89
2023/06/11 00:47:46;;;;;;;8.47;7.77;;;;;;;;;;4961481;28;20452;-81
2023/06/11 00:50:15;;;;;;;9.37;8.20;;;;;;;;;;4960211;28;20475;-85
2023/06/11 00:52:43;;;;;;;12.23;9.17;;;;;;;;;;4961058;28;20431;-80
2023/06/11 00:55:11;;;;;;;10.30;9.30;;;;;;;;;;4960822;28;20455;-86
2023/06/11 00:57:43;;;;;;;9.87;9.07;;;;;;;;;;4959365;28;20449;-81
2023/06/11 01:00:12;;;;;;;8.90;8.10;;;;;;;;;;4961450;28;20423;-81
2023/06/11 01:02:47;;;;;;;9.13;8.23;;;;;;;;;;4961974;28;20548;-86
2023/06/11 01:05:18;;;;;;;12.60;9.47;;;;;;;;;;4959072;28;20817;-84
2023/06/11 01:07:50;;;;;;;9.40;8.50;;;;;;;;;;4965767;28;20498;-82
2023/06/11 01:10:18;;;;;;;10.13;9.10;;;;;;;;;;4959110;28;20656;-82
2023/06/11 01:12:47;;;;;;;9.70;8.90;;;;;;;;;;4952764;28;20444;-82
2023/06/11 01:15:15;;;;;;;9.93;8.90;;;;;;;;;;4960872;28;20460;-86
2023/06/11 01:17:54;;;;;;;9.73;8.83;;;;;;;;;;4961888;28;20415;-84
2023/06/11 01:20:34;;;;;;;11.00;10.00;;;;;;;;;;4960710;28;20494;-84
2023/06/11 01:23:23;;;;;;;9.30;8.30;;;;;;;;;;4959850;28;20850;-80
2023/06/11 01:25:54;;;;;;;11.57;10.37;;;;;;;;;;4958595;28;20651;-82
2023/06/11 01:28:24;;;;;;;9.23;8.40;;;;;;;;;;4953209;28;20445;-85
2023/06/11 01:30:52;;;;;;;9.47;8.67;;;;;;;;;;4960273;28;20438;-81
2023/06/11 01:33:24;;;;;;;9.20;8.40;;;;;;;;;;4959509;28;20459;-80
2023/06/11 01:35:57;;;;;;;9.93;8.77;;;;;;;;;;4955397;28;20492;-83
2023/06/11 01:38:30;;;;;;;12.17;9.93;;;;;;;;;;4959529;28;20446;-80
2023/06/11 01:40:58;;;;;;;10.90;9.97;;;;;;;;;;4956599;28;20422;-81
2023/06/11 01:43:28;;;;;;;10.07;9.17;;;;;;;;;;4958848;28;20481;-77
2023/06/11 01:45:58;;;;;;;10.07;9.17;;;;;;;;;;4960370;29;20440;-79
2023/06/11 01:48:26;;;;;;;11.63;10.30;;;;;;;;;;4959816;28;20446;-82
2023/06/11 01:50:53;;;;;;;10.93;9.80;;;;;;;;;;4959773;28;20468;-78
2023/06/11 01:53:20;;;;;;;12.10;10.50;;;;;;;;;;4959143;28;20480;-79
2023/06/11 01:55:49;;;;;;;10.70;9.80;;;;;;;;;;4961284;28;20467;-82
2023/06/11 01:58:16;;;;;;;11.20;10.10;;;;;;;;;;4959337;28;20444;-84
2023/06/11 02:00:44;;;;;;;11.50;10.57;;;;;;;;;;4959602;28;20456;-79
2023/06/11 02:03:12;;;;;;;12.20;11.03;;;;;;;;;;4958500;28;20453;-82
2023/06/11 02:05:42;;;;;;;11.83;10.13;;;;;;;;;;4966943;28;20445;-83
2023/06/11 02:08:12;;;;;;;11.07;9.97;;;;;;;;;;4967349;28;20491;-81
2023/06/11 02:10:39;;;;;;;11.30;10.13;;;;;;;;;;4960579;28;20506;-85
2023/06/11 02:13:06;;;;;;;11.00;9.90;;;;;;;;;;4962511;28;20760;-82
2023/06/11 02:15:34;;;;;;;10.67;9.67;;;;;;;;;;4961875;28;20445;-81
2023/06/11 02:18:01;;;;;;;11.73;10.63;;;;;;;;;;4961236;28;20766;-83
2023/06/11 02:20:28;;;;;;;12.33;10.67;;;;;;;;;;4961747;29;20452;-83
2023/06/11 02:22:56;;;;;;;11.97;9.73;;;;;;;;;;4962120;28;20555;-81
2023/06/11 02:25:26;;;;;;;12.53;9.87;;;;;;;;;;4960186;28;20438;-82
2023/06/11 02:27:53;;;;;;;12.03;10.93;;;;;;;;;;4963624;28;20440;-82
2023/06/11 02:30:20;;;;;;;11.73;10.37;;;;;;;;;;4975258;28;20825;-83
2023/06/11 02:32:48;;;;;;;11.80;10.70;;;;;;;;;;4972631;28;20807;-84
2023/06/11 02:35:15;;;;;;;13.70;10.57;;;;;;;;;;4963018;28;20476;-83
2023/06/11 02:37:43;;;;;;;17.40;10.87;;;;;;;;;;4962730;28;20415;-86
2023/06/11 02:40:10;;;;;;;11.57;10.47;;;;;;;;;;4957631;29;20523;-82
2023/06/11 02:42:38;;;;;;;11.10;10.00;;;;;;;;;;4960312;28;21115;-84
2023/06/11 02:45:06;;;;;;;12.93;11.83;;;;;;;;;;4959110;29;20509;-85
2023/06/11 02:47:35;;;;;;;10.83;9.90;;;;;;;;;;4959856;28;20445;-82
2023/06/11 02:50:03;;;;;;;11.63;10.43;;;;;;;;;;4960861;28;20648;-85
2023/06/11 02:52:30;;;;;;;12.33;11.17;;;;;;;;;;4962750;28;20447;-82
2023/06/11 02:54:59;;;;;;;12.57;11.37;;;;;;;;;;4958330;28;20451;-83
2023/06/11 02:57:30;;;;;;;11.90;10.80;;;;;;;;;;4958087;28;20467;-80
2023/06/11 02:59:57;;;;;;;12.00;10.87;;;;;;;;;;4959605;29;20952;-85
2023/06/11 03:02:25;;;;;;;12.37;11.10;;;;;;;;;;4959111;28;20493;-82
2023/06/11 03:04:53;;;;;;;11.70;10.57;;;;;;;;;;4961523;28;20459;-81
2023/06/11 03:07:20;;;;;;;13.90;11.97;;;;;;;;;;4957523;28;20452;-80
2023/06/11 03:09:48;;;;;;;16.20;13.00;;;;;;;;;;4959107;28;20447;-81
2023/06/11 03:12:15;;;;;;;14.00;12.43;;;;;;;;;;4959210;28;20458;-83
2023/06/11 03:14:43;;;;;;;12.77;11.43;;;;;;;;;;4957658;28;20464;-82
2023/06/11 03:17:13;;;;;;;13.43;11.77;;;;;;;;;;4958075;28;20440;-82
2023/06/11 03:19:40;;;;;;;12.60;11.30;;;;;;;;;;4957694;28;20789;-84
2023/06/11 03:22:08;;;;;;;12.97;11.30;;;;;;;;;;4958244;28;20457;-86
2023/06/11 03:24:35;;;;;;;13.80;12.60;;;;;;;;;;4957788;28;20704;-85
2023/06/11 03:27:03;;;;;;;12.47;11.23;;;;;;;;;;4959283;28;20454;-83
2023/06/11 03:29:31;;;;;;;12.47;11.37;;;;;;;;;;4959379;28;20434;-85
2023/06/11 03:31:58;;;;;;;13.80;12.57;;;;;;;;;;4971232;28;20483;-85
2023/06/11 03:34:25;;;;;;;13.53;11.23;;;;;;;;;;4967891;28;20452;-80
2023/06/11 03:36:52;;;;;;;12.43;11.27;;;;;;;;;;4967254;28;20632;-79
2023/06/11 03:39:20;;;;;;;11.80;10.80;;;;;;;;;;4952004;28;20452;-79
2023/06/11 03:41:48;;;;;;;12.27;11.20;;;;;;;;;;4958399;28;20468;-81
2023/06/11 03:44:16;;;;;;;13.53;12.23;;;;;;;;;;4958071;28;20508;-81
2023/06/11 03:46:43;;;;;;;14.23;12.30;;;;;;;;;;4955243;29;20427;-78
2023/06/11 03:49:11;;;;;;;13.23;12.00;;;;;;;;;;4959001;28;20756;-82
2023/06/11 03:51:39;;;;;;;17.70;12.50;;;;;;;;;;4970144;28;20445;-83
2023/06/11 03:54:07;;;;;;;12.97;11.57;;;;;;;;;;4958688;28;20462;-86
2023/06/11 03:56:34;;;;;;;12.57;11.47;;;;;;;;;;4958768;28;20548;-79
2023/06/11 03:59:02;;;;;;;14.37;12.87;;;;;;;;;;4959115;28;20716;-80
2023/06/11 04:01:30;;;;;;;15.47;11.90;;;;;;;;;;4958755;28;20685;-82
2023/06/11 04:03:59;;;;;;;12.83;11.43;;;;;;;;;;4964817;28;20563;-84
2023/06/11 04:06:27;;;;;;;16.80;12.43;;;;;;;;;;4962685;28;20412;-82
2023/06/11 04:08:55;;;;;;;14.20;12.80;;;;;;;;;;4964468;28;20462;-83
2023/06/11 04:11:22;;;;;;;13.50;12.33;;;;;;;;;;4961911;28;20441;-83
2023/06/11 04:13:50;;;;;;;15.20;13.80;;;;;;;;;;4962156;28;20448;-83
2023/06/11 04:16:18;;;;;;;11.63;10.73;;;;;;;;;;4961343;28;20457;-84
2023/06/11 04:18:47;;;;;;;13.60;12.30;;;;;;;;;;4964412;28;20423;-82
2023/06/11 04:21:15;;;;;;;13.53;12.30;;;;;;;;;;4962188;28;20480;-84
2023/06/11 04:23:43;;;;;;;13.70;11.63;;;;;;;;;;4961603;28;20498;-77
2023/06/11 04:26:15;;;;;;;12.33;11.33;;;;;;;;;;4962340;28;20456;-83
2023/06/11 04:28:44;;;;;;;14.00;11.70;;;;;;;;;;4960806;28;20436;-82
2023/06/11 04:31:12;;;;;;;13.90;12.60;;;;;;;;;;4962411;28;20451;-83
2023/06/11 04:33:40;;;;;;;19.10;12.30;;;;;;;;;;4962869;28;20875;-82
2023/06/11 04:36:08;;;;;;;14.43;13.03;;;;;;;;;;4962840;28;20461;-83
2023/06/11 04:38:37;;;;;;;14.23;12.93;;;;;;;;;;4962190;28;20896;-80
2023/06/11 04:41:11;;;;;;;13.07;11.87;;;;;;;;;;4953188;29;20443;-85
2023/06/11 04:43:39;;;;;;;14.63;13.20;;;;;;;;;;4961440;28;20542;-85
2023/06/11 04:46:06;;;;;;;14.77;13.37;;;;;;;;;;4962365;28;20446;-84
2023/06/11 04:48:35;;;;;;;14.67;13.30;;;;;;;;;;4962907;28;20456;-82
2023/06/11 04:51:04;;;;;;;13.90;12.60;;;;;;;;;;4964376;28;20576;-84
2023/06/11 04:53:36;;;;;;;14.50;13.10;;;;;;;;;;4961806;28;20445;-81
2023/06/11 04:56:06;;;;;;;14.23;13.00;;;;;;;;;;4961716;28;20412;-81
2023/06/11 04:58:36;;;;;;;13.83;12.43;;;;;;;;;;4960561;28;20424;-84
2023/06/11 05:01:08;;;;;;;18.90;13.13;;;;;;;;;;4956246;28;20512;-83
2023/06/11 05:03:39;;;;;;;13.43;12.23;;;;;;;;;;4958810;28;20596;-83
2023/06/11 05:06:08;;;;;;;13.27;12.13;;;;;;;;;;4963856;28;20453;-80
2023/06/11 05:08:38;;;;;;;13.20;11.90;;;;;;;;;;4961218;29;20500;-81
2023/06/11 05:11:07;;;;;;;13.10;11.83;;;;;;;;;;4962434;28;20428;-82
2023/06/11 05:13:44;;;;;;;13.50;12.40;;;;;;;;;;4951157;28;20781;-87
2023/06/11 05:16:12;;;;;;;11.93;10.80;;;;;;;;;;4957440;28;20441;-85
2023/06/11 05:18:40;;;;;;;12.17;11.07;;;;;;;;;;4963464;28;20450;-82
2023/06/11 05:21:09;;;;;;;13.70;12.27;;;;;;;;;;4957245;28;20654;-83
2023/06/11 05:23:39;;;;;;;14.37;12.90;;;;;;;;;;4960758;28;20563;-85
2023/06/11 05:26:15;;;;;;;13.63;12.43;;;;;;;;;;4958639;28;20769;-82
2023/06/11 05:28:42;;;;;;;14.53;13.20;;;;;;;;;;4961835;28;20445;-82
2023/06/11 05:31:12;;;;;;;14.60;13.20;;;;;;;;;;4962248;28;20448;-82
2023/06/11 05:33:40;;;;;;;12.83;11.83;;;;;;;;;;4954099;29;20449;-78
2023/06/11 05:36:08;;;;;;;13.77;12.47;;;;;;;;;;4960313;28;20468;-80
2023/06/11 05:38:37;;;;;;;13.93;12.73;;;;;;;;;;4961258;28;20428;-82
2023/06/11 05:41:07;;;;;;;12.93;11.93;;;;;;;;;;4961576;28;20545;-83
2023/06/11 05:43:35;;;;;;;12.93;11.90;;;;;;;;;;4962121;28;20523;-83
2023/06/11 05:46:02;;;;;;;13.17;11.87;;;;;;;;;;4965231;28;20427;-82
2023/06/11 05:48:30;;;;;;;13.07;11.60;;;;;;;;;;4962106;28;20445;-79
2023/06/11 05:50:58;;;;;;;14.13;12.70;;;;;;;;;;4962708;28;20770;-79
2023/06/11 05:53:29;;;;;;;13.30;11.73;;;;;;;;;;4961791;28;20457;-85
2023/06/11 05:55:56;;;;;;;13.33;12.23;;;;;;;;;;4961123;28;20441;-80
2023/06/11 05:58:27;;;;;;;11.93;10.70;;;;;;;;;;4959626;28;20426;-82
2023/06/11 06:00:56;;;;;;;12.13;11.03;;;;;;;;;;4960768;28;20438;-86
2023/06/11 06:03:37;;;;;;;11.70;10.80;;;;;;;;;;4959367;28;20482;-81
2023/06/11 06:06:08;;;;;;;12.33;11.17;;;;;;;;;;4960708;28;20471;-85
2023/06/11 06:08:38;;;;;;;12.57;11.43;;;;;;;;;;4957118;28;20524;-83
2023/06/11 06:11:08;;;;;;;11.83;10.83;;;;;;;;;;4954229;28;20449;-83
2023/06/11 06:13:35;;;;;;;11.17;10.17;;;;;;;;;;4960897;28;20478;-83
2023/06/11 06:16:03;;;;;;;13.27;12.17;;;;;;;;;;4957483;29;20487;-84
2023/06/11 06:18:33;;;;;;;10.57;9.67;;;;;;;;;;4959294;28;20444;-79
2023/06/11 06:21:01;;;;;;;18.30;10.73;;;;;;;;;;4959132;28;20671;-85
2023/06/11 06:23:28;;;;;;;12.63;11.40;;;;;;;;;;4955663;28;20640;-84
2023/06/11 06:26:01;;;;;;;14.03;12.83;;;;;;;;;;4957162;28;20413;-83
2023/06/11 06:28:34;;;;;;;12.70;10.20;;;;;;;;;;4955040;28;20420;-85
2023/06/11 06:31:02;;;;;;;11.37;10.37;;;;;;;;;;4961964;28;20420;-81
2023/06/11 06:33:35;;;;;;;14.93;11.60;;;;;;;;;;4959238;28;20482;-84
2023/06/11 06:36:06;;;;;;;12.40;11.30;;;;;;;;;;4958259;28;20469;-84
2023/06/11 06:38:35;;;;;;;11.97;10.93;;;;;;;;;;4958832;28;20512;-84
2023/06/11 06:41:05;;;;;;;11.90;10.80;;;;;;;;;;4957793;28;20446;-82
2023/06/11 06:43:34;;;;;;;11.50;10.47;;;;;;;;;;4960164;28;20456;-84
2023/06/11 06:46:03;;;;;;;13.50;12.20;;;;;;;;;;4961061;28;20434;-84
2023/06/11 06:48:33;;;;;;;11.70;10.60;;;;;;;;;;4957728;28;20551;-82
2023/06/11 06:51:02;;;;;;;11.83;10.73;;;;;;;;;;4959152;29;20412;-80
2023/06/11 06:53:31;;;;;;;12.00;11.00;;;;;;;;;;4961188;28;20496;-81
2023/06/11 06:56:10;;;;;;;12.50;11.23;;;;;;;;;;4967498;28;21034;-86
2023/06/11 06:58:41;;;;;;;12.37;11.27;;;;;;;;;;4953818;28;20779;-81
2023/06/11 07:01:13;;;;;;;11.57;10.57;;;;;;;;;;4959539;28;20432;-83
2023/06/11 07:03:42;;;;;;;12.60;11.40;;;;;;;;;;4968093;28;20495;-83
2023/06/11 07:06:11;;;;;;;9.50;8.80;;;;;;;;;;4974045;28;20464;-85
2023/06/11 07:08:39;;;;;;;10.77;9.87;;;;;;;;;;4971325;28;20424;-84
2023/06/11 07:11:07;;;;;;;9.90;9.10;;;;;;;;;;4960300;29;20923;-84
2023/06/11 07:13:35;;;;;;;10.73;9.70;;;;;;;;;;4972305;28;20472;-81
2023/06/11 07:16:02;;;;;;;9.93;8.93;;;;;;;;;;4965423;28;20427;-83
2023/06/11 07:18:41;;;;;;;9.70;8.90;;;;;;;;;;4968961;29;20425;-82
2023/06/11 07:21:09;;;;;;;10.10;9.10;;;;;;;;;;4965443;28;20452;-84
2023/06/11 07:23:38;;;;;;;11.27;10.27;;;;;;;;;;4957491;29;20509;-82
2023/06/11 07:26:13;;;;;;;12.40;11.30;;;;;;;;;;4954055;28;20415;-83
2023/06/11 07:28:41;;;;;;;10.37;9.30;;;;;;;;;;4953214;29;20584;-85
2023/06/11 07:31:14;;;;;;;9.87;9.07;;;;;;;;;;4952520;29;20459;-84
2023/06/11 07:33:44;;;;;;;10.33;9.53;;;;;;;;;;4963820;28;20445;-84
2023/06/11 07:36:13;;;;;;;9.53;8.63;;;;;;;;;;4964183;28;20459;-83
2023/06/11 07:38:44;;;;;;;11.33;10.37;;;;;;;;;;4972594;28;20505;-80
2023/06/11 07:41:12;;;;;;;11.30;9.77;;;;;;;;;;4965567;28;20556;-83
2023/06/11 07:43:43;;;;;;;10.60;9.50;;;;;;;;;;4968837;28;20494;-80
2023/06/11 07:46:11;;;;;;;11.00;10.07;;;;;;;;;;4968531;28;20420;-82
2023/06/11 07:48:41;;;;;;;11.00;10.20;;;;;;;;;;4963056;28;20463;-84
2023/06/11 07:51:09;;;;;;;10.43;9.57;;;;;;;;;;4964593;28;20530;-80
2023/06/11 07:53:37;;;;;;;11.77;10.87;;;;;;;;;;4963533;28;20445;-80
2023/06/11 07:56:05;;;;;;;11.50;10.60;;;;;;;;;;4964260;28;20450;-85
2023/06/11 07:58:49;;;;;;;10.97;10.13;;;;;;;;;;4963763;28;20756;-83
2023/06/11 08:01:18;;;;;;;11.10;10.10;;;;;;;;;;4963550;28;20482;-84
2023/06/11 08:03:47;;;;;;;10.03;9.10;;;;;;;;;;4963465;28;20484;-84
2023/06/11 08:06:18;;;;;;;12.93;10.80;;;;;;;;;;4963078;28;20456;-84
2023/06/11 08:08:50;;;;;;;10.70;9.90;;;;;;;;;;4974681;28;20447;-83
2023/06/11 08:11:33;;;;;;;11.97;10.87;;;;;;;;;;4967001;28;20495;-84
2023/06/11 08:14:18;;;;;;;9.90;9.00;;;;;;;;;;4953586;28;20444;-82
2023/06/11 08:16:46;;;;;;;14.00;10.17;;;;;;;;;;4961524;29;20463;-82
2023/06/11 08:19:22;;;;;;;10.97;10.13;;;;;;;;;;4955353;28;20605;-85
2023/06/11 08:21:54;;;;;;;10.90;10.00;;;;;;;;;;4960706;28;20463;-87
2023/06/11 08:24:23;;;;;;;11.60;10.60;;;;;;;;;;4964305;28;20579;-83
2023/06/11 08:26:55;;;;;;;11.80;10.70;;;;;;;;;;4964359;28;20464;-82
2023/06/11 08:29:22;;;;;;;11.03;10.23;;;;;;;;;;4951388;29;20520;-79
2023/06/11 08:31:54;;;;;;;10.70;9.80;;;;;;;;;;4963336;28;20579;-83
2023/06/11 08:34:25;;;;;;;9.87;9.17;;;;;;;;;;4951377;28;20428;-82
2023/06/11 08:36:57;;;;;;;12.13;9.63;;;;;;;;;;4956231;28;20459;-84
2023/06/11 08:39:28;;;;;;;10.60;9.70;;;;;;;;;;4960708;28;20466;-87
2023/06/11 08:41:56;;;;;;;10.63;9.70;;;;;;;;;;4963933;28;20412;-86
2023/06/11 08:44:24;;;;;;;10.53;9.63;;;;;;;;;;4964668;28;20548;-83
2023/06/11 08:47:01;;;;;;;9.87;9.07;;;;;;;;;;4963290;28;21691;-85
2023/06/11 08:49:31;;;;;;;9.63;8.93;;;;;;;;;;4964505;28;20448;-86
2023/06/11 08:52:10;;;;;;;11.33;10.53;;;;;;;;;;4964414;28;20412;-83
2023/06/11 08:54:48;;;;;;;9.93;9.23;;;;;;;;;;4958345;28;20439;-88
2023/06/11 08:57:22;;;;;;;9.37;8.67;;;;;;;;;;4964667;28;20437;-83
2023/06/11 08:59:56;;;;;;;14.47;9.07;;;;;;;;;;4971677;28;20449;-84
2023/06/11 09:02:31;;;;;;;13.00;8.67;;;;;;;;;;4973192;28;20441;-81
2023/06/11 09:05:06;;;;;;;9.07;8.30;;;;;;;;;;4980906;28;20449;-81
2023/06/11 09:07:36;;;;;;;10.47;8.10;;;;;;;;;;4980790;28;20452;-84
2023/06/11 09:10:13;;;;;;;9.67;8.73;;;;;;;;;;4971967;28;20429;-85
2023/06/11 09:12:51;;;;;;;8.00;7.40;;;;;;;;;;4965711;28;20456;-86
2023/06/11 09:15:27;;;;;;;8.67;7.97;;;;;;;;;;4964337;28;20445;-86
2023/06/11 09:18:02;;;;;;;7.40;6.90;;;;;;;;;;4963841;28;20444;-84
2023/06/11 09:20:33;;;;;;;7.77;7.17;;;;;;;;;;4965210;28;20710;-83
2023/06/11 09:23:01;;;;;;;9.00;8.10;;;;;;;;;;4963415;28;20449;-87
2023/06/11 09:25:31;;;;;;;8.40;7.60;;;;;;;;;;4957459;28;20602;-82
2023/06/11 09:28:05;;;;;;;8.70;8.00;;;;;;;;;;4959809;28;20504;-87
2023/06/11 09:30:34;;;;;;;8.93;8.13;;;;;;;;;;4964371;28;20659;-84
2023/06/11 09:33:15;;;;;;;8.90;8.10;;;;;;;;;;4960008;28;20704;-81
2023/06/11 09:35:45;;;;;;;9.27;7.33;;;;;;;;;;4959982;28;20816;-82
2023/06/11 09:38:17;;;;;;;7.27;6.67;;;;;;;;;;4957886;28;20444;-82
2023/06/11 09:40:49;;;;;;;8.87;8.17;;;;;;;;;;4945130;28;20583;-84
2023/06/11 09:43:21;;;;;;;10.40;7.60;;;;;;;;;;4974111;28;20531;-83
2023/06/11 09:45:55;;;;;;;8.63;7.00;;;;;;;;;;4962026;28;20659;-87
2023/06/11 09:48:24;;;;;;;8.40;7.63;;;;;;;;;;4960110;28;20480;-84
2023/06/11 09:50:55;;;;;;;9.40;7.80;;;;;;;;;;4962858;29;20461;-85
2023/06/11 09:53:23;;;;;;;7.57;6.97;;;;;;;;;;4962704;28;20420;-84
2023/06/11 09:55:54;;;;;;;8.37;7.60;;;;;;;;;;4961609;28;20437;-85
2023/06/11 09:58:37;;;;;;;8.17;7.50;;;;;;;;;;4963934;28;20528;-84
2023/06/11 10:01:08;;;;;;;7.47;6.77;;;;;;;;;;4944371;28;20758;-85
2023/06/11 10:03:36;;;;;;;8.73;8.00;;;;;;;;;;4965215;28;20420;-83
2023/06/11 10:06:07;;;;;;;7.60;7.00;;;;;;;;;;4950658;29;20573;-84
2023/06/11 10:08:39;;;;;;;8.10;7.43;;;;;;;;;;4957156;28;20428;-86
2023/06/11 10:11:11;;;;;;;7.30;6.70;;;;;;;;;;4950253;28;20461;-85
2023/06/11 10:13:43;;;;;;;7.67;6.97;;;;;;;;;;4971982;28;20835;-87
2023/06/11 10:16:15;;;;;;;7.37;6.63;;;;;;;;;;4966475;28;20525;-83
2023/06/11 10:18:44;;;;;;;7.30;6.80;;;;;;;;;;4967256;28;20444;-84
2023/06/11 10:21:13;;;;;;;7.87;7.20;;;;;;;;;;4955666;28;20420;-83
2023/06/11 10:23:41;;;;;;;7.30;6.73;;;;;;;;;;4963233;28;20450;-86
2023/06/11 10:26:10;;;;;;;7.80;7.10;;;;;;;;;;4968033;28;20447;-87
2023/06/11 10:28:49;;;;;;;6.83;6.33;;;;;;;;;;4975461;28;20437;-84
2023/06/11 10:31:28;;;;;;;7.40;6.70;;;;;;;;;;4988744;28;20443;-81
2023/06/11 10:34:05;;;;;;;7.20;6.50;;;;;;;;;;4966130;28;20753;-84
2023/06/11 10:36:40;;;;;;;7.03;6.50;;;;;;;;;;4962149;28;20492;-82
2023/06/11 10:39:09;;;;;;;8.00;7.20;;;;;;;;;;4956887;28;20634;-85
2023/06/11 10:41:37;;;;;;;7.37;6.63;;;;;;;;;;4966326;28;20607;-81
2023/06/11 10:44:07;;;;;;;6.80;6.20;;;;;;;;;;4961115;28;20439;-80
2023/06/11 10:46:51;;;;;;;7.30;6.70;;;;;;;;;;4963729;28;20479;-82
2023/06/11 10:49:22;;;;;;;6.27;5.77;;;;;;;;;;4956630;28;20430;-83
2023/06/11 10:51:50;;;;;;;6.83;6.33;;;;;;;;;;4960965;28;20516;-83
2023/06/11 10:54:28;;;;;;;6.53;5.60;;;;;;;;;;4960160;28;20456;-84
2023/06/11 10:56:58;;;;;;;7.77;6.90;;;;;;;;;;4961357;28;20499;-82
2023/06/11 10:59:29;;;;;;;7.03;6.40;;;;;;;;;;4961168;28;20420;-84
2023/06/11 11:02:01;;;;;;;7.10;6.50;;;;;;;;;;4960417;28;20428;-81
2023/06/11 11:04:28;;;;;;;6.83;6.23;;;;;;;;;;4961146;28;20474;-84
2023/06/11 11:07:08;;;;;;;8.03;6.87;;;;;;;;;;4953040;28;20492;-84
2023/06/11 11:09:36;;;;;;;7.90;6.20;;;;;;;;;;4955191;28;20416;-84
2023/06/11 11:12:05;;;;;;;6.00;5.40;;;;;;;;;;4955851;28;20416;-80
2023/06/11 11:14:34;;;;;;;5.40;5.00;;;;;;;;;;4956783;29;20467;-82
2023/06/11 11:17:05;;;;;;;5.73;5.13;;;;;;;;;;4963865;28;20830;-84
2023/06/11 11:19:34;;;;;;;6.30;5.70;;;;;;;;;;4968556;28;20453;-82
2023/06/11 11:22:03;;;;;;;5.60;5.10;;;;;;;;;;4967205;28;20431;-84
2023/06/11 11:24:34;;;;;;;6.23;5.73;;;;;;;;;;4964114;28;20518;-84
2023/06/11 11:27:07;;;;;;;6.57;5.97;;;;;;;;;;4962392;28;20415;-81
2023/06/11 11:29:37;;;;;;;6.13;5.63;;;;;;;;;;4956454;28;20545;-81
2023/06/11 11:32:13;;;;;;;9.77;5.40;;;;;;;;;;4955227;28;20460;-86
2023/06/11 11:34:43;;;;;;;10.43;6.20;;;;;;;;;;4961282;28;20462;-79
2023/06/11 11:37:13;;;;;;;8.40;5.60;;;;;;;;;;4955061;28;20567;-86
2023/06/11 11:39:40;;;;;;;6.70;6.00;;;;;;;;;;4953737;28;20420;-83
2023/06/11 11:42:11;;;;;;;6.93;6.10;;;;;;;;;;4958294;28;20572;-85
2023/06/11 11:44:56;;;;;;;6.27;5.77;;;;;;;;;;4959407;28;20460;-82
2023/06/11 11:47:29;;;;;;;5.87;5.37;;;;;;;;;;4958486;28;20444;-85
2023/06/11 11:49:59;;;;;;;6.30;5.80;;;;;;;;;;4960103;28;20444;-81
2023/06/11 11:52:27;;;;;;;6.00;5.50;;;;;;;;;;4965747;28;20472;-83
2023/06/11 11:54:56;;;;;;;5.73;5.33;;;;;;;;;;4969063;28;20415;-82
2023/06/11 11:57:26;;;;;;;6.20;5.70;;;;;;;;;;4982052;28;20429;-83
2023/06/11 11:59:55;;;;;;;5.90;5.40;;;;;;;;;;4965157;28;20434;-87
2023/06/11 12:02:28;;;;;;;5.50;5.10;;;;;;;;;;4968197;28;20427;-81
2023/06/11 12:04:57;;;;;;;6.70;6.10;;;;;;;;;;4969760;28;20460;-87
2023/06/11 12:07:36;;;;;;;5.57;5.13;;;;;;;;;;4956959;28;20419;-85
2023/06/11 12:10:08;;;;;;;4.93;4.57;;;;;;;;;;4959206;28;20445;-81
2023/06/11 12:12:36;;;;;;;5.67;5.27;;;;;;;;;;4960163;28;20746;-84
2023/06/11 12:15:04;;;;;;;6.37;5.77;;;;;;;;;;4965947;28;20412;-81
2023/06/11 12:17:31;;;;;;;7.63;5.83;;;;;;;;;;4960131;28;21001;-85
2023/06/11 12:20:04;;;;;;;8.13;5.40;;;;;;;;;;4960045;28;20423;-85
2023/06/11 12:22:35;;;;;;;7.20;5.60;;;;;;;;;;4961390;28;20505;-84
2023/06/11 12:25:03;;;;;;;6.90;6.30;;;;;;;;;;4956977;28;20445;-82
2023/06/11 12:27:31;;;;;;;7.07;5.50;;;;;;;;;;4961024;28;20431;-84
2023/06/11 12:30:05;;;;;;;7.83;6.73;;;;;;;;;;4964121;28;20705;-85
2023/06/11 12:32:36;;;;;;;6.33;5.63;;;;;;;;;;4962211;28;20481;-84
2023/06/11 12:35:08;;;;;;;6.20;5.70;;;;;;;;;;4968858;28;20449;-85
2023/06/11 12:37:42;;;;;;;5.70;5.30;;;;;;;;;;4970161;28;20700;-83
2023/06/11 12:40:10;;;;;;;5.50;4.63;;;;;;;;;;4963308;28;20445;-86
2023/06/11 12:42:40;;;;;;;6.83;6.13;;;;;;;;;;4960369;28;20469;-87
2023/06/11 12:45:08;;;;;;;6.13;5.63;;;;;;;;;;4953336;28;20484;-85
2023/06/11 12:47:39;;;;;;;6.20;5.70;;;;;;;;;;4967755;28;20424;-85
2023/06/11 12:50:18;;;;;;;5.63;5.20;;;;;;;;;;4968812;28;20424;-85
2023/06/11 12:52:50;;;;;;;6.23;5.80;;;;;;;;;;4967608;28;20820;-84
2023/06/11 12:55:18;;;;;;;5.50;5.10;;;;;;;;;;4966002;28;20999;-81
2023/06/11 12:57:47;;;;;;;5.67;5.10;;;;;;;;;;4958657;28;20510;-83
2023/06/11 13:00:15;;;;;;;6.20;5.80;;;;;;;;;;4947646;28;20476;-84
2023/06/11 13:02:44;;;;;;;7.40;6.50;;;;;;;;;;4963493;28;20428;-84
2023/06/11 13:05:13;;;;;;;6.47;5.63;;;;;;;;;;4964410;28;20456;-81
2023/06/11 13:07:42;;;;;;;6.33;5.73;;;;;;;;;;4967215;28;20622;-84
2023/06/11 13:10:13;;;;;;;8.37;6.70;;;;;;;;;;4959783;28;20491;-84
2023/06/11 13:12:41;;;;;;;5.80;5.40;;;;;;;;;;4960593;28;20416;-84
2023/06/11 13:15:13;;;;;;;10.20;6.20;;;;;;;;;;4964540;28;20416;-84
2023/06/11 13:17:41;;;;;;;6.60;6.00;;;;;;;;;;4963272;28;20863;-85
2023/06/11 13:20:09;;;;;;;6.10;5.60;;;;;;;;;;4960267;28;20466;-82
2023/06/11 13:22:41;;;;;;;7.10;5.23;;;;;;;;;;4960417;28;20439;-85
2023/06/11 13:25:08;;;;;;;6.60;5.97;;;;;;;;;;4960079;28;20473;-82
2023/06/11 13:27:36;;;;;;;6.17;5.67;;;;;;;;;;4958901;28;20476;-83
2023/06/11 13:30:08;;;;;;;6.23;5.33;;;;;;;;;;4954585;28;20508;-84
2023/06/11 13:32:37;;;;;;;8.03;5.80;;;;;;;;;;4950563;28;20424;-86
2023/06/11 13:35:07;;;;;;;6.10;5.50;;;;;;;;;;4963500;28;20545;-84
2023/06/11 13:37:37;;;;;;;6.60;6.00;;;;;;;;;;4959532;28;20420;-86
2023/06/11 13:40:15;;;;;;;5.77;5.37;;;;;;;;;;4963821;28;20627;-82
2023/06/11 13:42:43;;;;;;;6.13;5.63;;;;;;;;;;4956791;28;20436;-81
2023/06/11 13:45:11;;;;;;;5.87;5.27;;;;;;;;;;4963997;28;20492;-84
2023/06/11 13:47:38;;;;;;;8.73;6.03;;;;;;;;;;4973280;28;20444;-85
2023/06/11 13:50:06;;;;;;;6.13;5.67;;;;;;;;;;4974713;28;20457;-83
2023/06/11 13:52:34;;;;;;;5.60;5.20;;;;;;;;;;4962153;28;20422;-80
2023/06/11 13:55:05;;;;;;;6.37;5.77;;;;;;;;;;4955113;28;20462;-85
2023/06/11 13:57:34;;;;;;;7.90;4.60;;;;;;;;;;4964224;29;20453;-87
2023/06/11 14:00:08;;;;;;;5.13;4.53;;;;;;;;;;4954674;28;20428;-83
2023/06/11 14:02:36;;;;;;;5.43;4.93;;;;;;;;;;4960943;28;20423;-85
2023/06/11 14:05:04;;;;;;;5.23;4.83;;;;;;;;;;4960272;28;20445;-85
2023/06/11 14:07:43;;;;;;;6.23;5.63;;;;;;;;;;4958558;28;20451;-85
2023/06/11 14:10:13;;;;;;;5.60;4.97;;;;;;;;;;4962172;28;20451;-84
2023/06/11 14:12:41;;;;;;;5.50;5.00;;;;;;;;;;4957370;28;20416;-84
2023/06/11 14:15:11;;;;;;;4.60;4.30;;;;;;;;;;4962410;28;20922;-79
2023/06/11 14:17:40;;;;;;;5.80;5.00;;;;;;;;;;4955884;28;20421;-82
2023/06/11 14:20:07;;;;;;;5.87;5.27;;;;;;;;;;4959859;28;20445;-85
2023/06/11 14:22:36;;;;;;;5.53;5.13;;;;;;;;;;4962696;28;20446;-83
2023/06/11 14:25:04;;;;;;;9.50;5.10;;;;;;;;;;4970829;28;20523;-85
2023/06/11 14:27:35;;;;;;;5.20;4.80;;;;;;;;;;4951616;28;20787;-85
2023/06/11 14:30:08;;;;;;;5.57;5.07;;;;;;;;;;4949405;28;20415;-83
2023/06/11 14:32:36;;;;;;;6.33;4.83;;;;;;;;;;4952281;28;20508;-81
2023/06/11 14:35:06;;;;;;;5.40;4.97;;;;;;;;;;4950739;28;20425;-85
2023/06/11 14:37:33;;;;;;;6.60;5.90;;;;;;;;;;4950300;28;20438;-80
2023/06/11 14:40:04;;;;;;;5.30;4.80;;;;;;;;;;4952636;28;20493;-84
2023/06/11 14:42:31;;;;;;;5.47;4.97;;;;;;;;;;4959185;28;20502;-86
2023/06/11 14:45:02;;;;;;;5.83;5.43;;;;;;;;;;4956986;28;20473;-86
2023/06/11 14:47:35;;;;;;;6.20;4.97;;;;;;;;;;4959299;28;20424;-85